You are listening to:
KJFK D-ATIS - New York, New York, United States

KJFK 161251Z 19010KT 10SM FEW090 SCT130 BKN160 BKN210 21/19 A2992 RMK AO2 SLP131 T02110194

If stream does not start automatically press the play button